Time;durP1;ratioP1;P1;durP2;ratioP2;P2;SDS_P1;SDS_P2;PMS_P1;PMS_P2;Temp;Humidity;BMP_temperature;BMP_pressure;BME280_temperature;BME280_humidity;BME280_pressure;Samples;Min_cycle;Max_cycle;Signal;HPM_P1;HPM_P2
2023/05/28 00:01:19;;;;;;;4.00;3.60;;;;;;;17.85;73.89;96768.47;4991513;28;20205;-68
2023/05/28 00:03:46;;;;;;;4.80;4.20;;;;;;;17.73;73.93;96766.81;4990886;28;20202;-70
2023/05/28 00:06:14;;;;;;;5.53;4.13;;;;;;;17.74;74.01;96765.88;4991135;28;20239;-69
2023/05/28 00:08:41;;;;;;;6.03;4.27;;;;;;;17.84;74.00;96764.22;4991145;28;20222;-68
2023/05/28 00:11:08;;;;;;;4.93;4.40;;;;;;;17.87;73.08;96758.72;4990869;28;20267;-77
2023/05/28 00:13:35;;;;;;;5.27;4.30;;;;;;;17.86;73.67;96759.69;4991189;28;20608;-76
2023/05/28 00:16:02;;;;;;;5.90;4.87;;;;;;;17.74;74.09;96742.28;4972949;28;20200;-71
2023/05/28 00:18:30;;;;;;;5.07;4.50;;;;;;;17.81;74.45;96753.97;4991310;28;20286;-74
2023/05/28 00:20:57;;;;;;;5.90;4.60;;;;;;;17.84;74.64;96743.25;4990722;28;20192;-69
2023/05/28 00:23:24;;;;;;;8.00;5.13;;;;;;;17.76;74.62;96739.56;4990971;28;20188;-72
2023/05/28 00:25:51;;;;;;;7.30;4.73;;;;;;;17.41;75.72;96715.28;5005608;28;20196;-68
2023/05/28 00:28:19;;;;;;;5.97;4.50;;;;;;;17.66;75.55;96746.50;4989146;28;20207;-69
2023/05/28 00:30:46;;;;;;;4.27;3.87;;;;;;;17.60;75.18;96734.69;4989878;28;20210;-68
2023/05/28 00:33:13;;;;;;;4.37;3.90;;;;;;;17.66;75.90;96751.72;4990044;28;20204;-73
2023/05/28 00:35:41;;;;;;;4.97;4.30;;;;;;;17.68;76.04;96745.38;4989736;28;20271;-68
2023/05/28 00:38:08;;;;;;;5.40;4.23;;;;;;;17.53;76.60;96733.53;4990055;28;20260;-69
2023/05/28 00:40:35;;;;;;;4.57;3.90;;;;;;;17.71;76.34;96742.53;4989433;28;20236;-70
2023/05/28 00:43:02;;;;;;;5.10;4.20;;;;;;;17.72;77.23;96744.19;4989222;28;20235;-68
2023/05/28 00:45:29;;;;;;;5.07;3.80;;;;;;;17.68;76.99;96745.38;5005183;28;20251;-68
2023/05/28 00:47:57;;;;;;;5.87;4.13;;;;;;;17.57;77.85;96737.56;4990572;28;20203;-69
2023/05/28 00:50:25;;;;;;;5.23;4.43;;;;;;;17.62;77.59;96731.97;4989844;28;20249;-68
2023/05/28 00:52:53;;;;;;;5.77;3.80;;;;;;;17.60;77.62;96737.31;4973251;28;20771;-68
2023/05/28 00:55:20;;;;;;;6.80;4.23;;;;;;;17.65;77.98;96718.63;4989485;28;20228;-69
2023/05/28 00:57:48;;;;;;;7.17;5.03;;;;;;;17.56;79.04;96722.78;5004001;28;20225;-71
2023/05/28 01:00:16;;;;;;;5.70;5.10;;;;;;;17.36;80.25;96715.63;4988520;28;20253;-69
2023/05/28 01:02:44;;;;;;;6.37;4.53;;;;;;;17.51;80.81;96709.25;4989969;28;20231;-70
2023/05/28 01:05:11;;;;;;;5.20;4.70;;;;;;;17.57;81.21;96702.69;5005474;28;20199;-71
2023/05/28 01:07:38;;;;;;;6.90;5.10;;;;;;;17.64;81.34;96706.50;4989525;28;20204;-70
2023/05/28 01:10:06;;;;;;;5.83;4.67;;;;;;;17.73;81.33;96709.22;4990374;28;20722;-73
2023/05/28 01:12:36;;;;;;;6.33;5.73;;;;;;;17.57;81.60;96708.75;4988068;28;20319;-69
2023/05/28 01:15:04;;;;;;;6.90;4.83;;;;;;;17.45;82.59;96706.22;4990064;28;20708;-68
2023/05/28 01:17:32;;;;;;;6.50;5.40;;;;;;;17.49;82.71;96702.41;4988209;28;20339;-71
2023/05/28 01:20:10;;;;;;;6.17;4.37;;;;;;;17.60;81.58;96707.66;4988671;28;20663;-74
2023/05/28 01:22:39;;;;;;;6.20;5.33;;;;;;;17.57;81.90;96711.38;4989475;28;20263;-69
2023/05/28 01:25:09;;;;;;;5.77;4.73;;;;;;;17.53;82.12;96715.19;4988053;28;20696;-70
2023/05/28 01:27:40;;;;;;;6.80;4.47;;;;;;;16.95;86.15;96715.38;4988737;28;20296;-70
2023/05/28 01:30:11;;;;;;;4.10;3.57;;;;;;;16.95;83.92;96718.81;4988073;28;20216;-69
2023/05/28 01:32:39;;;;;;;4.80;4.17;;;;;;;17.01;85.98;96723.59;5004668;28;20204;-68
2023/05/28 01:35:09;;;;;;;4.13;3.30;;;;;;;17.07;84.59;96723.13;5004296;28;20196;-70
2023/05/28 01:37:45;;;;;;;5.00;3.40;;;;;;;17.21;84.05;96711.56;5004114;28;20240;-73
2023/05/28 01:40:16;;;;;;;4.30;3.70;;;;;;;17.03;84.81;96713.00;4990152;28;20246;-70
2023/05/28 01:43:23;;;;;;;4.87;3.43;;;;;;;17.12;85.08;96717.53;4989136;28;20192;-70
2023/05/28 01:46:43;;;;;;;3.57;3.23;;;;;;;17.16;84.58;96703.25;4988879;28;20200;-72
2023/05/28 01:50:04;;;;;;;6.83;3.40;;;;;;;17.34;84.33;96708.84;5003996;28;20196;-72
2023/05/28 01:53:25;;;;;;;3.20;2.90;;;;;;;17.48;83.37;96700.75;5003352;28;20255;-72
2023/05/28 01:56:46;;;;;;;4.33;3.53;;;;;;;17.45;82.88;96701.84;4972453;28;20758;-69
2023/05/28 02:00:06;;;;;;;3.00;2.70;;;;;;;17.71;82.88;96690.16;5003050;28;20208;-69
2023/05/28 02:03:27;;;;;;;4.23;3.73;;;;;;;17.81;83.58;96701.56;4988936;28;20287;-72
2023/05/28 02:06:48;;;;;;;5.23;3.50;;;;;;;17.90;83.75;96697.38;5003491;28;20869;-72
2023/05/28 02:10:09;;;;;;;4.60;3.67;;;;;;;17.86;83.56;96690.72;5002679;28;20204;-75
2023/05/28 02:13:31;;;;;;;5.03;4.13;;;;;;;18.01;83.00;96693.91;4972149;28;20201;-69
2023/05/28 02:16:53;;;;;;;4.27;3.20;;;;;;;18.00;82.80;96705.31;5002943;28;20200;-70
2023/05/28 02:20:14;;;;;;;3.47;2.93;;;;;;;17.99;82.76;96703.69;5003360;28;20204;-70
2023/05/28 02:23:34;;;;;;;4.93;3.60;;;;;;;18.12;82.36;96709.56;5003111;28;20204;-69
2023/05/28 02:26:58;;;;;;;6.73;3.70;;;;;;;17.93;83.04;96709.41;5002507;28;20235;-69
2023/05/28 02:30:18;;;;;;;4.97;3.10;;;;;;;18.10;82.98;96711.50;4987942;28;20651;-68
2023/05/28 02:33:39;;;;;;;6.20;3.37;;;;;;;17.79;84.05;96708.72;4988316;28;20202;-69
2023/05/28 02:36:32;;;;;;;4.13;3.00;;;;;;;17.47;84.62;96707.78;4988541;28;20192;-71
2023/05/28 02:39:03;;;;;;;4.00;2.93;;;;;;;17.50;84.46;96709.34;4987575;28;20727;-70
2023/05/28 02:41:31;;;;;;;3.60;2.70;;;;;;;17.29;85.38;96714.44;4988473;28;20604;-71
2023/05/28 02:43:58;;;;;;;3.13;2.83;;;;;;;17.23;86.45;96706.25;4986515;28;20194;-69
2023/05/28 02:46:25;;;;;;;3.87;2.97;;;;;;;17.11;87.19;96700.16;4988059;28;20198;-77
2023/05/28 02:48:52;;;;;;;2.90;2.60;;;;;;;17.21;86.67;96697.69;5003228;28;20210;-78
2023/05/28 02:51:20;;;;;;;3.40;3.07;;;;;;;17.20;87.49;96699.47;4986340;28;20778;-74
2023/05/28 02:54:01;;;;;;;3.53;2.57;;;;;;;17.16;86.96;96692.81;4987166;28;20202;-70
2023/05/28 02:56:28;;;;;;;4.33;2.60;;;;;;;17.20;87.16;96706.47;4987366;28;20236;-70
2023/05/28 02:58:55;;;;;;;5.03;3.33;;;;;;;17.34;87.56;96711.47;4986643;28;20315;-73
2023/05/28 03:01:23;;;;;;;3.57;3.10;;;;;;;17.35;87.56;96719.19;4986448;28;20200;-69
2023/05/28 03:03:50;;;;;;;4.43;3.63;;;;;;;17.42;87.84;96720.38;4986538;28;20557;-71
2023/05/28 03:06:21;;;;;;;5.93;3.20;;;;;;;17.40;87.62;96710.97;4986679;28;20212;-69
2023/05/28 03:08:53;;;;;;;3.37;3.07;;;;;;;17.60;86.59;96713.75;4985837;28;20196;-70
2023/05/28 03:11:21;;;;;;;3.80;2.87;;;;;;;17.79;86.37;96721.81;4986886;28;20226;-74
2023/05/28 03:13:48;;;;;;;4.30;3.57;;;;;;;17.71;86.32;96715.50;4985974;28;20204;-70
2023/05/28 03:16:16;;;;;;;4.00;3.60;;;;;;;17.70;86.67;96714.66;4986713;28;20194;-69
2023/05/28 03:18:44;;;;;;;4.30;3.90;;;;;;;17.83;86.46;96714.53;4987389;28;20796;-72
2023/05/28 03:21:11;;;;;;;5.93;4.43;;;;;;;17.61;87.83;96715.41;4985810;28;20207;-70
2023/05/28 03:23:38;;;;;;;8.33;4.50;;;;;;;17.62;87.71;96711.84;4986489;28;20205;-74
2023/05/28 03:26:25;;;;;;;5.30;4.10;;;;;;;17.72;87.54;96718.00;4999009;28;20200;-70
2023/05/28 03:28:54;;;;;;;6.40;4.77;;;;;;;17.74;87.91;96705.63;5002855;28;20209;-77
2023/05/28 03:31:46;;;;;;;7.23;4.33;;;;;;;17.66;88.19;96712.44;4985674;28;20202;-79
2023/05/28 03:34:18;;;;;;;6.57;5.17;;;;;;;17.78;87.45;96712.28;5002415;28;20230;-80
2023/05/28 03:36:46;;;;;;;5.23;4.73;;;;;;;17.72;87.77;96707.53;4986539;28;20200;-79
2023/05/28 03:39:13;;;;;;;5.67;4.63;;;;;;;17.66;88.09;96717.69;4985569;28;20223;-78
2023/05/28 03:41:41;;;;;;;6.03;5.10;;;;;;;17.72;88.26;96733.72;4986602;28;20199;-70
2023/05/28 03:44:09;;;;;;;6.27;4.90;;;;;;;17.34;90.03;96724.56;4985707;28;20194;-77
2023/05/28 03:46:37;;;;;;;5.50;4.50;;;;;;;17.32;90.25;96724.69;4986323;28;20207;-70
2023/05/28 03:49:04;;;;;;;5.13;4.27;;;;;;;17.43;90.09;96727.31;4987155;28;20205;-70
2023/05/28 03:51:31;;;;;;;8.13;4.57;;;;;;;17.60;89.57;96723.38;5002333;28;20255;-69
2023/05/28 03:54:00;;;;;;;6.90;5.07;;;;;;;17.60;89.91;96728.59;4986269;28;20257;-74
2023/05/28 03:56:27;;;;;;;6.87;4.40;;;;;;;17.80;88.94;96728.69;4986764;28;20327;-70
2023/05/28 03:58:55;;;;;;;9.07;5.40;;;;;;;17.66;88.52;96728.97;5002648;28;20712;-70
2023/05/28 04:01:22;;;;;;;7.60;4.57;;;;;;;17.63;88.57;96741.47;4985172;28;20205;-74
2023/05/28 04:03:49;;;;;;;5.13;4.60;;;;;;;17.61;88.94;96731.13;4986011;28;20679;-71
2023/05/28 04:06:17;;;;;;;6.10;4.73;;;;;;;17.65;88.99;96736.94;4985720;28;20271;-76
2023/05/28 04:08:44;;;;;;;6.63;5.10;;;;;;;17.43;89.17;96721.22;4969688;28;20238;-70
2023/05/28 04:11:11;;;;;;;7.10;5.90;;;;;;;17.26;90.99;96721.69;5002435;28;20206;-72
2023/05/28 04:13:39;;;;;;;6.93;5.40;;;;;;;17.08;92.60;96744.91;4985263;28;20214;-70
2023/05/28 04:16:07;;;;;;;6.37;5.67;;;;;;;16.75;94.16;96700.38;5021582;28;20208;-69
2023/05/28 04:18:34;;;;;;;6.73;5.70;;;;;;;17.11;93.41;96744.63;5004587;28;20227;-73
2023/05/28 04:21:02;;;;;;;6.53;5.03;;;;;;;17.15;92.63;96746.06;5022131;28;20271;-73
2023/05/28 04:23:30;;;;;;;6.63;5.50;;;;;;;17.09;93.78;96730.84;5004863;28;20656;-69
2023/05/28 04:25:57;;;;;;;7.37;5.63;;;;;;;17.20;93.43;96741.34;5005120;28;20282;-77
2023/05/28 04:28:27;;;;;;;7.77;5.47;;;;;;;17.43;91.81;96737.78;5005064;28;20205;-79
2023/05/28 04:30:55;;;;;;;5.60;5.03;;;;;;;17.54;91.35;96744.81;5004910;28;20184;-79
2023/05/28 04:33:23;;;;;;;6.97;4.90;;;;;;;17.42;91.26;96743.13;5008215;28;20504;-79
2023/05/28 04:35:51;;;;;;;7.93;5.20;;;;;;;17.29;91.54;96756.31;5024585;28;20210;-71
2023/05/28 04:38:20;;;;;;;9.07;5.20;;;;;;;16.92;93.19;96746.97;5008896;28;20232;-73
2023/05/28 04:40:49;;;;;;;5.20;4.70;;;;;;;17.11;93.56;96739.41;5009540;28;20199;-71
2023/05/28 04:43:16;;;;;;;6.07;4.93;;;;;;;17.16;92.71;96734.66;5009891;28;20781;-70
2023/05/28 04:45:44;;;;;;;4.80;4.30;;;;;;;17.39;90.88;96731.13;5008691;28;20228;-74
2023/05/28 04:48:11;;;;;;;5.50;4.13;;;;;;;17.50;90.50;96741.59;5024776;28;20260;-71
2023/05/28 04:50:41;;;;;;;4.87;4.33;;;;;;;17.30;90.26;96750.13;5009221;28;20283;-73
2023/05/28 04:53:08;;;;;;;4.67;3.97;;;;;;;17.24;91.02;96752.38;5007935;28;20683;-73
2023/05/28 04:55:35;;;;;;;6.00;4.57;;;;;;;17.44;91.42;96743.81;5008513;28;20233;-70
2023/05/28 04:58:02;;;;;;;6.17;5.00;;;;;;;17.51;91.15;96748.53;5007830;28;20774;-72
2023/05/28 05:00:31;;;;;;;5.87;4.50;;;;;;;17.42;91.12;96757.03;5008373;28;20197;-72
2023/05/28 05:03:00;;;;;;;6.20;5.30;;;;;;;17.42;90.86;96762.28;5008339;28;20703;-77
2023/05/28 05:05:28;;;;;;;6.07;4.60;;;;;;;17.37;91.64;96769.63;5008037;28;20201;-73
2023/05/28 05:07:56;;;;;;;6.40;4.63;;;;;;;17.51;91.64;96752.91;5008629;28;20196;-72
2023/05/28 05:10:23;;;;;;;6.10;5.07;;;;;;;17.43;92.15;96752.66;5003923;28;20267;-69
2023/05/28 05:12:50;;;;;;;19.93;6.00;;;;;;;17.62;91.41;96758.97;5004395;28;20222;-71
2023/05/28 05:15:18;;;;;;;6.03;5.07;;;;;;;17.60;91.46;96753.00;5004582;28;20188;-71
2023/05/28 05:17:45;;;;;;;5.20;4.70;;;;;;;17.81;90.69;96764.44;5022062;28;20236;-70
2023/05/28 05:20:12;;;;;;;5.60;3.70;;;;;;;17.64;90.58;96761.50;5007762;28;20289;-70
2023/05/28 05:22:40;;;;;;;5.80;4.10;;;;;;;17.49;90.67;96758.28;5002746;28;20228;-71
2023/05/28 05:25:07;;;;;;;4.20;3.80;;;;;;;17.39;91.42;96745.97;4997659;28;20205;-70
2023/05/28 05:27:36;;;;;;;6.87;3.77;;;;;;;17.60;90.81;96755.63;5007161;28;20271;-69
2023/05/28 05:30:05;;;;;;;6.17;4.80;;;;;;;17.65;91.21;96769.22;5007829;28;20198;-69
2023/05/28 05:32:32;;;;;;;5.00;3.73;;;;;;;17.56;90.33;96753.38;4998756;28;20225;-71
2023/05/28 05:35:00;;;;;;;6.50;3.93;;;;;;;17.62;90.80;96772.06;4991095;28;20633;-72
2023/05/28 05:37:47;;;;;;;4.93;4.23;;;;;;;17.79;90.63;96775.97;5006183;28;20280;-74
2023/05/28 05:40:46;;;;;;;5.13;3.87;;;;;;;17.92;89.61;96781.09;5007822;28;20197;-72
2023/05/28 05:43:46;;;;;;;4.47;3.83;;;;;;;17.85;90.29;96768.47;5014591;28;20231;-69
2023/05/28 05:46:14;;;;;;;5.23;4.10;;;;;;;17.84;90.88;96786.94;5017028;28;20702;-73
2023/05/28 05:48:41;;;;;;;4.73;4.23;;;;;;;17.99;89.75;96779.66;5018295;28;20204;-73
2023/05/28 05:51:09;;;;;;;9.53;5.47;;;;;;;17.84;90.23;96782.56;4989632;28;20202;-70
2023/05/28 05:54:19;;;;;;;5.37;4.60;;;;;;;17.95;90.24;96786.09;5015938;28;20200;-79
2023/05/28 05:57:41;;;;;;;14.27;7.30;;;;;;;18.02;90.22;96782.03;5008068;28;20224;-75
2023/05/28 06:00:23;;;;;;;9.80;6.30;;;;;;;18.28;89.46;96778.19;5008021;28;20207;-78
2023/05/28 06:02:54;;;;;;;7.07;4.73;;;;;;;18.44;88.30;96783.88;5006875;28;20200;-80
2023/05/28 06:05:40;;;;;;;5.87;4.73;;;;;;;18.81;86.38;96777.28;5008672;28;20193;-73
2023/05/28 06:08:24;;;;;;;4.70;4.20;;;;;;;19.21;85.14;96780.03;5006792;28;20201;-72
2023/05/28 06:10:59;;;;;;;6.07;4.30;;;;;;;19.32;84.26;96782.59;5007929;28;20194;-74
2023/05/28 06:13:26;;;;;;;5.17;3.90;;;;;;;19.58;83.55;96786.47;5007289;28;20223;-77
2023/05/28 06:15:54;;;;;;;5.20;4.40;;;;;;;19.60;82.86;96797.69;5006446;28;20194;-74
2023/05/28 06:18:23;;;;;;;5.57;3.90;;;;;;;19.57;82.94;96797.13;5006054;28;20241;-74
2023/05/28 06:20:50;;;;;;;6.03;4.50;;;;;;;19.44;83.36;96782.41;5006585;28;20555;-74
2023/05/28 06:23:18;;;;;;;5.33;4.43;;;;;;;19.46;83.45;96790.16;5003650;28;20230;-78
2023/05/28 06:25:45;;;;;;;4.80;4.27;;;;;;;19.35;83.08;96783.19;4984997;28;20683;-70
2023/05/28 06:28:12;;;;;;;4.30;3.83;;;;;;;19.29;82.70;96788.91;5016690;28;20207;-76
2023/05/28 06:30:39;;;;;;;6.00;4.03;;;;;;;19.39;82.70;96786.41;5006207;28;20204;-71
2023/05/28 06:33:08;;;;;;;3.83;3.47;;;;;;;19.30;83.51;96790.59;5005392;28;20209;-72
2023/05/28 06:35:36;;;;;;;3.87;3.43;;;;;;;19.31;82.01;96792.25;5003741;28;20641;-69
2023/05/28 06:38:04;;;;;;;4.47;3.93;;;;;;;19.21;81.45;96796.63;5020817;28;20260;-71
2023/05/28 06:40:31;;;;;;;4.43;3.57;;;;;;;19.38;82.33;96792.59;4987595;28;20202;-69
2023/05/28 06:43:00;;;;;;;6.37;4.03;;;;;;;19.58;82.69;96799.63;5022351;28;20593;-70
2023/05/28 06:45:33;;;;;;;9.43;4.43;;;;;;;19.58;81.57;96783.03;5005476;28;20194;-70
2023/05/28 06:48:03;;;;;;;4.63;3.70;;;;;;;19.88;80.33;96796.16;4989826;28;20276;-73
2023/05/28 06:50:30;;;;;;;5.57;3.83;;;;;;;19.88;78.93;96791.75;5005640;28;20539;-70
2023/05/28 06:52:57;;;;;;;5.60;2.57;;;;;;;19.88;77.45;96797.00;5005993;28;20196;-72
2023/05/28 06:55:24;;;;;;;5.43;3.90;;;;;;;19.90;78.91;96788.97;5005105;28;20223;-79
2023/05/28 06:58:14;;;;;;;6.03;3.33;;;;;;;20.11;78.49;96784.47;5006707;28;20199;-69
2023/05/28 07:01:03;;;;;;;4.47;3.10;;;;;;;19.79;78.29;96782.00;5006156;28;20194;-74
2023/05/28 07:03:50;;;;;;;4.50;3.70;;;;;;;19.88;77.89;96775.97;5005378;28;20202;-72
2023/05/28 07:06:23;;;;;;;3.67;3.03;;;;;;;19.97;76.60;96779.59;4999058;28;20650;-72
2023/05/28 07:08:50;;;;;;;5.53;3.30;;;;;;;19.90;77.24;96741.66;5007944;28;20210;-74
2023/05/28 07:11:21;;;;;;;5.13;4.17;;;;;;;20.29;76.17;96782.88;5001860;28;20214;-73
2023/05/28 07:13:49;;;;;;;3.90;3.30;;;;;;;20.31;75.55;96788.84;5022581;28;20302;-70
2023/05/28 07:16:16;;;;;;;4.50;3.03;;;;;;;20.28;74.51;96789.09;5005138;28;20234;-73
2023/05/28 07:18:43;;;;;;;5.93;3.70;;;;;;;20.38;74.26;96792.56;4989292;28;20235;-75
2023/05/28 07:21:12;;;;;;;5.63;3.40;;;;;;;20.53;71.69;96785.09;5005202;28;20639;-70
2023/05/28 07:23:43;;;;;;;4.00;3.60;;;;;;;20.43;69.99;96790.38;5005299;28;20571;-71
2023/05/28 07:26:11;;;;;;;4.93;3.50;;;;;;;20.54;70.67;96787.63;4989009;28;20222;-69
2023/05/28 07:28:40;;;;;;;4.40;3.47;;;;;;;20.51;71.12;96773.88;5005069;28;20698;-69
2023/05/28 07:31:07;;;;;;;9.20;4.67;;;;;;;20.73;71.35;96778.91;5005838;28;20195;-75
2023/05/28 07:33:36;;;;;;;5.40;3.20;;;;;;;20.76;70.31;96779.44;5006225;28;20241;-72
2023/05/28 07:36:04;;;;;;;5.70;4.03;;;;;;;20.85;70.38;96783.91;5005836;28;20192;-74
2023/05/28 07:38:34;;;;;;;6.40;3.60;;;;;;;20.92;71.10;96782.34;5004980;28;20308;-74
2023/05/28 07:41:01;;;;;;;7.83;4.47;;;;;;;21.18;68.73;96774.75;5012684;28;20207;-77
2023/05/28 07:43:36;;;;;;;7.57;3.60;;;;;;;21.31;68.46;96774.44;5021923;28;20199;-70
2023/05/28 07:46:08;;;;;;;13.83;4.57;;;;;;;21.45;66.92;96773.97;5011589;28;20238;-75
2023/05/28 07:48:46;;;;;;;8.47;3.80;;;;;;;21.34;64.25;96779.41;5005527;28;20461;-71
2023/05/28 07:51:33;;;;;;;5.17;3.83;;;;;;;21.32;64.11;96779.56;5000528;28;20626;-76
2023/05/28 07:54:07;;;;;;;5.67;3.60;;;;;;;21.34;62.10;96776.78;5003136;28;20222;-76
2023/05/28 07:56:34;;;;;;;5.40;4.07;;;;;;;21.22;61.57;96762.94;5005303;28;20223;-78
2023/05/28 07:59:05;;;;;;;5.93;4.03;;;;;;;21.03;62.41;96763.81;5004879;28;20235;-80
2023/05/28 08:01:34;;;;;;;5.67;3.70;;;;;;;21.04;64.41;96769.91;4990363;28;20199;-80
2023/05/28 08:04:04;;;;;;;7.13;3.97;;;;;;;21.37;63.46;96774.66;5004132;28;20229;-75
2023/05/28 08:06:36;;;;;;;5.87;3.20;;;;;;;21.00;62.89;96771.09;5019243;28;20196;-72
2023/05/28 08:09:06;;;;;;;4.43;3.70;;;;;;;20.79;64.45;96771.25;5007869;28;20207;-77
2023/05/28 08:11:33;;;;;;;6.13;3.93;;;;;;;20.63;64.22;96778.88;4992885;28;20261;-74
2023/05/28 08:14:01;;;;;;;8.30;4.07;;;;;;;20.67;64.48;96777.63;5023934;28;20214;-70
2023/05/28 08:16:28;;;;;;;6.27;3.80;;;;;;;20.75;64.37;96780.41;5019704;28;20207;-72
2023/05/28 08:19:13;;;;;;;8.20;4.50;;;;;;;20.75;65.12;96777.78;5008247;28;20222;-75
2023/05/28 08:21:44;;;;;;;4.77;2.97;;;;;;;20.57;64.13;96778.59;5008045;28;20195;-73
2023/05/28 08:24:12;;;;;;;4.93;3.40;;;;;;;20.32;67.78;96779.97;5008396;28;20666;-70
2023/05/28 08:26:40;;;;;;;5.57;3.83;;;;;;;20.00;69.76;96793.28;5008439;28;20749;-74
2023/05/28 08:29:09;;;;;;;6.57;4.10;;;;;;;20.00;71.61;96787.19;5009541;28;20257;-72
2023/05/28 08:31:42;;;;;;;5.03;3.10;;;;;;;19.84;68.14;96773.72;5008535;28;20601;-73
2023/05/28 08:34:18;;;;;;;5.30;2.97;;;;;;;19.89;68.38;96782.03;5007524;28;20210;-73
2023/05/28 08:36:46;;;;;;;4.47;3.20;;;;;;;19.95;67.94;96784.13;5009545;28;20273;-70
2023/05/28 08:39:20;;;;;;;5.87;4.50;;;;;;;19.93;68.26;96778.16;5008950;28;20745;-71
2023/05/28 08:42:28;;;;;;;7.83;3.77;;;;;;;20.21;68.43;96777.47;5007787;28;20663;-70
2023/05/28 08:45:10;;;;;;;6.90;4.10;;;;;;;20.58;67.75;96777.66;4990679;28;20290;-72
2023/05/28 08:47:47;;;;;;;5.57;3.87;;;;;;;20.78;67.89;96772.25;5004715;28;20199;-71
2023/05/28 08:50:20;;;;;;;4.93;3.13;;;;;;;21.02;66.64;96780.56;5005018;28;20696;-71
2023/05/28 08:53:15;;;;;;;6.30;3.10;;;;;;;20.99;62.93;96762.41;4984292;28;20208;-74
2023/05/28 08:55:45;;;;;;;4.07;3.00;;;;;;;21.41;62.88;96775.25;5003913;28;20227;-71
2023/05/28 08:58:20;;;;;;;7.17;3.00;;;;;;;21.42;61.99;96767.19;5004825;28;20212;-75
2023/05/28 09:00:50;;;;;;;3.83;2.90;;;;;;;21.65;62.19;96772.94;4989634;28;20725;-70
2023/05/28 09:03:37;;;;;;;4.43;2.83;;;;;;;21.18;61.79;96768.63;4989595;28;20688;-70
2023/05/28 09:06:15;;;;;;;5.43;3.07;;;;;;;21.07;61.91;96777.53;4988575;28;20204;-73
2023/05/28 09:08:45;;;;;;;6.37;3.40;;;;;;;21.20;62.30;96774.59;4971661;28;20209;-71
2023/05/28 09:11:22;;;;;;;6.73;3.03;;;;;;;21.14;61.67;96780.44;4988417;28;20215;-69
2023/05/28 09:13:50;;;;;;;5.37;3.43;;;;;;;21.34;61.10;96777.59;5004255;28;20208;-70
2023/05/28 09:16:22;;;;;;;5.93;3.40;;;;;;;21.23;60.85;96776.91;4972429;28;20196;-69
2023/05/28 09:19:02;;;;;;;5.40;3.83;;;;;;;21.33;61.29;96778.56;4986989;28;20223;-71
2023/05/28 09:21:31;;;;;;;5.73;3.50;;;;;;;21.62;60.67;96768.78;4987463;28;20303;-72
2023/05/28 09:24:00;;;;;;;4.50;3.50;;;;;;;21.89;60.39;96775.91;5004848;28;20674;-70
2023/05/28 09:26:32;;;;;;;7.43;3.93;;;;;;;21.72;60.05;96768.75;4989179;28;20195;-68
2023/05/28 09:29:12;;;;;;;5.63;3.40;;;;;;;21.77;59.42;96762.06;4988149;28;20212;-74
2023/05/28 09:31:40;;;;;;;7.03;4.53;;;;;;;22.02;59.97;96752.66;5004354;28;20228;-74
2023/05/28 09:34:08;;;;;;;6.47;3.80;;;;;;;21.81;59.60;96767.88;5004579;28;20202;-78
2023/05/28 09:36:36;;;;;;;5.87;3.40;;;;;;;21.99;58.87;96755.59;5004921;28;20304;-80
2023/05/28 09:39:09;;;;;;;6.30;3.50;;;;;;;21.96;60.37;96745.34;5004066;28;20629;-69
2023/05/28 09:41:43;;;;;;;4.73;3.57;;;;;;;22.18;59.88;96750.22;4989815;28;20581;-73
2023/05/28 09:44:10;;;;;;;5.50;3.53;;;;;;;21.88;59.42;96755.81;4989168;28;20197;-68
2023/05/28 09:46:38;;;;;;;8.80;3.60;;;;;;;21.25;60.29;96709.13;4987608;28;20727;-69
2023/05/28 09:49:05;;;;;;;6.17;3.40;;;;;;;21.78;60.07;96749.72;4987264;28;20213;-75
2023/05/28 09:51:32;;;;;;;5.57;3.20;;;;;;;21.83;59.70;96755.41;4988182;28;20668;-72
2023/05/28 09:54:03;;;;;;;7.27;4.03;;;;;;;21.13;60.37;96758.50;4989173;28;20193;-71
2023/05/28 09:56:32;;;;;;;6.57;3.50;;;;;;;20.83;59.61;96742.88;4988141;28;20220;-79
2023/05/28 09:59:06;;;;;;;6.97;3.80;;;;;;;21.06;60.98;96729.28;4988271;28;20284;-69
2023/05/28 10:02:05;;;;;;;6.30;4.13;;;;;;;21.08;61.22;96737.06;4990906;28;20196;-73
2023/05/28 10:04:36;;;;;;;6.73;4.00;;;;;;;21.13;60.15;96736.59;4986387;28;20215;-70
2023/05/28 10:07:05;;;;;;;6.00;4.03;;;;;;;21.19;59.32;96734.25;4989647;28;20192;-79
2023/05/28 10:09:33;;;;;;;9.90;4.00;;;;;;;21.30;59.43;96720.91;4988273;28;20219;-72
2023/05/28 10:12:15;;;;;;;6.77;3.83;;;;;;;21.67;59.80;96734.09;5003643;28;20286;-70
2023/05/28 10:14:43;;;;;;;8.00;4.43;;;;;;;21.54;59.68;96728.31;4988462;28;20228;-68
2023/05/28 10:17:11;;;;;;;5.03;3.73;;;;;;;21.35;59.37;96738.94;4988642;28;20192;-68
2023/05/28 10:19:38;;;;;;;6.40;3.50;;;;;;;21.51;58.47;96725.97;4988254;28;20229;-70
2023/05/28 10:22:05;;;;;;;8.40;4.00;;;;;;;21.93;58.23;96732.44;4970488;28;20671;-70
2023/05/28 10:24:33;;;;;;;5.60;3.83;;;;;;;22.29;58.43;96731.53;4987085;28;20240;-69
2023/05/28 10:27:05;;;;;;;9.80;4.70;;;;;;;21.93;56.74;96716.63;4987764;28;20251;-69
2023/05/28 10:29:41;;;;;;;5.47;4.43;;;;;;;21.97;57.56;96730.38;4988362;28;20202;-69
2023/05/28 10:32:15;;;;;;;6.50;3.87;;;;;;;21.89;56.83;96712.63;5003102;28;20192;-68
2023/05/28 10:34:43;;;;;;;7.73;4.40;;;;;;;21.98;57.14;96710.91;4987782;28;20194;-68
2023/05/28 10:37:12;;;;;;;5.57;3.67;;;;;;;21.90;57.52;96709.03;4988381;28;20194;-70
2023/05/28 10:39:47;;;;;;;6.10;3.60;;;;;;;22.33;55.34;96701.25;4987186;28;20284;-68
2023/05/28 10:42:17;;;;;;;6.87;3.87;;;;;;;22.48;55.32;96693.63;4988577;28;20204;-71
2023/05/28 10:45:00;;;;;;;7.57;4.17;;;;;;;22.67;56.15;96696.94;4988583;28;20201;-70
2023/05/28 10:47:38;;;;;;;7.63;4.20;;;;;;;22.20;56.30;96706.03;4971473;28;20199;-70
2023/05/28 10:50:08;;;;;;;6.77;4.03;;;;;;;22.11;56.29;96709.59;4988106;28;20214;-76
2023/05/28 10:53:03;;;;;;;5.00;3.90;;;;;;;22.01;57.30;96695.63;4971016;28;20267;-68
2023/05/28 10:55:51;;;;;;;4.60;3.50;;;;;;;21.93;56.67;96692.88;4987729;28;20357;-70
2023/05/28 10:58:36;;;;;;;6.17;3.90;;;;;;;21.90;57.25;96693.19;4987823;28;20201;-71
2023/05/28 11:01:05;;;;;;;5.83;3.80;;;;;;;21.61;58.11;96671.41;4987073;28;20230;-71
2023/05/28 11:03:41;;;;;;;7.27;4.13;;;;;;;21.50;58.70;96690.88;4999338;28;20247;-70
2023/05/28 11:06:10;;;;;;;5.27;3.80;;;;;;;21.78;58.14;96678.53;5006771;28;20203;-70
2023/05/28 11:08:43;;;;;;;9.53;4.10;;;;;;;21.88;58.62;96674.06;5005763;28;20727;-70
2023/05/28 11:11:12;;;;;;;7.53;4.60;;;;;;;21.81;57.70;96672.94;5007248;28;20199;-72
2023/05/28 11:13:48;;;;;;;7.37;4.13;;;;;;;21.84;57.79;96683.25;5006994;28;20588;-69
2023/05/28 11:16:18;;;;;;;5.23;4.27;;;;;;;21.79;59.33;96675.75;5006025;28;20694;-69
2023/05/28 11:19:03;;;;;;;7.70;4.67;;;;;;;22.08;59.76;96686.13;5006603;28;20193;-70
2023/05/28 11:21:32;;;;;;;9.67;4.00;;;;;;;22.06;57.92;96692.53;5006640;28;20236;-70
2023/05/28 11:24:00;;;;;;;5.97;3.97;;;;;;;21.66;58.59;96677.06;5006730;28;20491;-78
2023/05/28 11:26:27;;;;;;;5.57;4.07;;;;;;;21.85;58.80;96696.28;5005431;28;20205;-79
2023/05/28 11:28:54;;;;;;;7.53;4.47;;;;;;;21.84;57.15;96705.16;5007027;28;20579;-72
2023/05/28 11:31:22;;;;;;;7.67;4.40;;;;;;;21.89;57.76;96686.25;5006491;28;20279;-72
2023/05/28 11:33:49;;;;;;;9.77;4.20;;;;;;;21.92;57.31;96696.53;5007663;28;20206;-70
2023/05/28 11:36:18;;;;;;;6.97;4.00;;;;;;;22.26;55.73;96696.69;5006315;28;20195;-69
2023/05/28 11:38:46;;;;;;;6.53;3.90;;;;;;;22.22;55.11;96692.69;5006954;28;20251;-70
2023/05/28 11:41:13;;;;;;;5.83;4.00;;;;;;;22.30;55.37;96700.69;5004939;28;20243;-69
2023/05/28 11:43:40;;;;;;;7.53;3.83;;;;;;;22.29;55.83;96702.53;5006272;28;20205;-73
2023/05/28 11:46:07;;;;;;;6.83;4.20;;;;;;;22.31;55.86;96705.84;5006864;28;20517;-74
2023/05/28 11:48:37;;;;;;;9.83;5.30;;;;;;;22.29;55.13;96691.97;5006370;28;20195;-78
2023/05/28 11:51:05;;;;;;;5.90;4.03;;;;;;;22.24;56.45;96686.28;5007363;28;20193;-69
2023/05/28 11:53:42;;;;;;;10.87;4.47;;;;;;;22.55;57.00;96692.00;5006075;28;20198;-71
2023/05/28 11:56:11;;;;;;;5.73;4.40;;;;;;;22.10;62.18;96691.25;5006803;28;20256;-71
2023/05/28 11:58:43;;;;;;;8.97;4.67;;;;;;;21.88;64.28;96679.34;5005111;28;20680;-70
2023/05/28 12:01:15;;;;;;;7.07;4.43;;;;;;;22.02;63.91;96697.28;5006356;28;20229;-69
2023/05/28 12:03:42;;;;;;;6.50;4.17;;;;;;;21.92;64.85;96691.25;5005438;28;20683;-71
2023/05/28 12:06:13;;;;;;;8.07;4.90;;;;;;;21.80;65.60;96685.28;5006035;28;20199;-69